Time;durP1;ratioP1;P1;durP2;ratioP2;P2;SDS_P1;SDS_P2;PMS_P1;PMS_P2;Temp;Humidity;BMP_temperature;BMP_pressure;BME280_temperature;BME280_humidity;BME280_pressure;Samples;Min_cycle;Max_cycle;Signal;HPM_P1;HPM_P2
2022/09/08 00:01:34;;;;;;;7.40;4.40;;;;;23.50;98273.00;;;;16576012;28;20231;-51
2022/09/08 00:09:38;;;;;;;6.20;5.70;;;;;22.90;98286.00;;;;16580999;28;20226;-51
2022/09/08 00:17:40;;;;;;;6.13;4.37;;;;;24.00;98269.00;;;;16580961;28;20210;-52
2022/09/08 00:25:44;;;;;;;6.53;5.90;;;;;24.20;98243.00;;;;16589158;28;20699;-51
2022/09/08 00:33:46;;;;;;;6.67;4.97;;;;;23.90;98251.00;;;;16587514;28;20281;-51
2022/09/08 00:41:50;;;;;;;7.00;5.50;;;;;23.20;98263.00;;;;16592775;28;20320;-52
2022/09/08 00:49:58;;;;;;;7.33;5.60;;;;;23.80;98282.00;;;;16589964;28;20234;-51
2022/09/08 00:58:02;;;;;;;7.17;5.47;;;;;22.40;98335.00;;;;16591316;28;20255;-52
2022/09/08 01:12:43;;;;;;;4.73;4.33;;;;;23.80;98346.00;;;;16588136;28;20220;-51
2022/09/08 01:14:47;;;;;;;4.40;4.10;;;;;24.40;98329.00;;;;16590666;28;20227;-51
2022/09/08 01:23:14;;;;;;;5.97;4.90;;;;;23.10;98327.00;;;;16589315;28;20249;-52
2022/09/08 01:31:18;;;;;;;6.67;4.73;;;;;22.70;98329.00;;;;16581742;28;20335;-49
2022/09/08 01:39:21;;;;;;;4.90;4.50;;;;;22.00;98328.00;;;;16588007;28;20225;-49
2022/09/08 01:47:25;;;;;;;4.77;4.30;;;;;22.60;98316.00;;;;16586122;28;20230;-50
2022/09/08 01:55:27;;;;;;;9.80;5.23;;;;;22.00;98312.00;;;;16588688;28;20225;-49
2022/09/08 02:03:31;;;;;;;6.03;5.50;;;;;22.10;98315.00;;;;16587964;28;20587;-49
2022/09/08 02:11:34;;;;;;;6.57;5.90;;;;;22.50;98302.00;;;;16587171;28;20730;-49
2022/09/08 02:19:37;;;;;;;5.97;5.47;;;;;22.80;98281.00;;;;16587830;28;20246;-50
2022/09/08 02:27:40;;;;;;;5.20;4.80;;;;;22.90;98289.00;;;;16586184;28;20257;-49
2022/09/08 02:35:44;;;;;;;5.70;4.80;;;;;23.30;98266.00;;;;16586077;28;20200;-49
2022/09/08 02:43:46;;;;;;;5.10;4.53;;;;;23.40;98248.00;;;;16583355;28;20306;-49
2022/09/08 02:51:50;;;;;;;4.70;4.13;;;;;23.40;98238.00;;;;16584975;28;20235;-49
2022/09/08 02:59:53;;;;;;;4.10;3.80;;;;;23.70;98236.00;;;;16584019;28;20223;-50
2022/09/08 03:07:57;;;;;;;4.33;2.90;;;;;23.10;98246.00;;;;16584037;28;20752;-49
2022/09/08 03:15:59;;;;;;;3.80;3.27;;;;;23.60;98246.00;;;;16582719;28;20195;-50
2022/09/08 03:24:03;;;;;;;3.87;3.27;;;;;23.80;98247.00;;;;16578025;28;20669;-50
2022/09/08 03:32:06;;;;;;;4.03;2.20;;;;;23.40;98243.00;;;;16581683;28;20695;-50
2022/09/08 03:40:12;;;;;;;2.83;2.47;;;;;23.70;98251.00;;;;16582959;28;20713;-50
2022/09/08 03:48:15;;;;;;;2.63;2.10;;;;;23.60;98244.00;;;;16583007;28;20276;-50
2022/09/08 03:56:20;;;;;;;2.40;2.20;;;;;23.40;98245.00;;;;16583413;28;20205;-50
2022/09/08 04:04:23;;;;;;;2.00;1.90;;;;;23.50;98246.00;;;;16595485;28;20825;-51
2022/09/08 04:12:27;;;;;;;4.03;1.77;;;;;23.60;98239.00;;;;16595341;28;20940;-50
2022/09/08 04:20:29;;;;;;;1.87;1.77;;;;;23.20;98239.00;;;;16595232;28;20223;-49
2022/09/08 04:28:34;;;;;;;1.43;1.30;;;;;23.40;98242.00;;;;16590651;28;20219;-50
2022/09/08 04:36:36;;;;;;;4.60;1.23;;;;;23.10;98250.00;;;;16594061;28;20205;-49
2022/09/08 04:44:40;;;;;;;1.77;1.60;;;;;22.90;98255.00;;;;16593068;28;20219;-49
2022/09/08 04:52:42;;;;;;;3.50;1.50;;;;;22.90;98259.00;;;;16584963;28;20247;-50
2022/09/08 05:00:46;;;;;;;2.17;1.07;;;;;23.10;98278.00;;;;16577224;28;20211;-49
2022/09/08 05:08:49;;;;;;;2.93;1.40;;;;;23.20;98275.00;;;;16582372;28;20235;-49
2022/09/08 05:16:53;;;;;;;2.30;1.47;;;;;23.00;98298.00;;;;16580448;28;20668;-50
2022/09/08 05:24:56;;;;;;;3.97;2.50;;;;;23.40;98309.00;;;;16582996;28;20317;-49
2022/09/08 05:32:59;;;;;;;2.90;1.80;;;;;23.10;98320.00;;;;16583242;28;20225;-50
2022/09/08 05:41:02;;;;;;;1.30;1.20;;;;;21.90;98331.00;;;;16562192;28;20229;-50
2022/09/08 05:49:06;;;;;;;13.70;2.60;;;;;23.00;98343.00;;;;16571189;28;20227;-49
2022/09/08 05:57:08;;;;;;;2.13;1.20;;;;;22.80;98350.00;;;;16571738;28;20208;-50
2022/09/08 06:05:12;;;;;;;3.57;1.23;;;;;23.10;98352.00;;;;16581735;28;20258;-50
2022/09/08 06:13:14;;;;;;;1.50;1.00;;;;;23.80;98365.00;;;;16584813;28;20293;-51
2022/09/08 06:21:20;;;;;;;5.80;1.53;;;;;23.60;98372.00;;;;16577495;28;20233;-50
2022/09/08 06:29:34;;;;;;;1.90;1.00;;;;;22.80;98372.00;;;;16573870;28;20238;-50
2022/09/08 06:37:43;;;;;;;1.80;1.43;;;;;21.50;98381.00;;;;16580364;28;20298;-51
2022/09/08 06:45:49;;;;;;;1.70;1.20;;;;;22.90;98372.00;;;;16579617;28;20223;-50
2022/09/08 06:54:00;;;;;;;2.47;1.47;;;;;22.00;98392.00;;;;16580470;28;20223;-51
2022/09/08 07:02:26;;;;;;;9.37;8.47;;;;;22.70;98399.00;;;;16580834;28;20247;-51
2022/09/08 07:10:32;;;;;;;4.53;4.17;;;;;23.60;98393.00;;;;16577036;28;20223;-51
2022/09/08 07:18:41;;;;;;;5.20;3.70;;;;;24.30;98394.00;;;;16566409;28;20293;-51
2022/09/08 07:26:49;;;;;;;2.63;2.20;;;;;24.90;98383.00;;;;16567183;28;20785;-51
2022/09/08 07:34:55;;;;;;;4.50;1.83;;;;;25.30;98384.00;;;;16572711;28;20227;-50
2022/09/08 07:43:00;;;;;;;1.80;1.30;;;;;24.00;98401.00;;;;16577180;28;20247;-51
2022/09/08 07:51:09;;;;;;;3.83;1.43;;;;;23.70;98413.00;;;;16571375;28;20219;-51
2022/09/08 07:59:22;;;;;;;2.47;1.50;;;;;24.80;98413.00;;;;16568399;28;20336;-51
2022/09/08 08:07:29;;;;;;;1.87;1.20;;;;;25.10;98408.00;;;;16578967;28;20226;-51
2022/09/08 08:15:37;;;;;;;2.70;1.33;;;;;21.80;98419.00;;;;16571972;28;20230;-51
2022/09/08 08:23:58;;;;;;;0.83;0.83;;;;;21.90;98434.00;;;;16516155;23;20248;-49
2022/09/08 08:32:10;;;;;;;1.47;1.20;;;;;21.50;98431.00;;;;16438729;28;20232;-49
2022/09/08 08:40:34;;;;;;;3.60;1.17;;;;;21.80;98430.00;;;;16437817;28;20709;-48
2022/09/08 08:48:49;;;;;;;1.23;1.13;;;;;22.50;98438.00;;;;16448281;28;20238;-49
2022/09/08 08:56:59;;;;;;;2.40;1.03;;;;;22.60;98453.00;;;;16452754;28;20188;-49
2022/09/08 09:05:34;;;;;;;2.13;0.93;;;;;22.30;98464.00;;;;16451121;28;20216;-50
2022/09/08 09:13:56;;;;;;;1.13;0.80;;;;;23.40;98445.00;;;;16444566;28;20228;-49
2022/09/08 09:22:07;;;;;;;1.37;0.80;;;;;23.40;98441.00;;;;16443670;28;20263;-50
2022/09/08 09:30:25;;;;;;;1.83;0.93;;;;;22.40;98445.00;;;;16450439;28;20236;-49
2022/09/08 09:38:47;;;;;;;1.23;0.90;;;;;22.20;98446.00;;;;16457496;28;20201;-49
2022/09/08 09:47:25;;;;;;;1.77;1.03;;;;;22.70;98453.00;;;;16451491;28;20239;-49
2022/09/08 09:55:46;;;;;;;0.70;0.70;;;;;22.10;98447.00;;;;16458485;28;20697;-49
2022/09/08 10:04:14;;;;;;;1.13;0.70;;;;;22.30;98446.00;;;;16456022;28;20229;-49
2022/09/08 10:12:41;;;;;;;0.97;0.87;;;;;22.80;98436.00;;;;16449946;28;20239;-49
2022/09/08 10:21:13;;;;;;;0.93;0.80;;;;;23.50;98423.00;;;;16455642;28;20705;-50
2022/09/08 10:29:40;;;;;;;1.43;0.83;;;;;22.70;98432.00;;;;16456912;28;20236;-49
2022/09/08 10:38:10;;;;;;;1.20;1.00;;;;;24.00;98423.00;;;;16450657;28;20489;-49
2022/09/08 10:46:35;;;;;;;1.27;1.00;;;;;23.70;98425.00;;;;16454668;28;20437;-50
2022/09/08 10:55:21;;;;;;;1.30;0.87;;;;;23.10;98435.00;;;;16455634;28;20282;-49
2022/09/08 11:03:37;;;;;;;1.60;0.90;;;;;23.00;98432.00;;;;16451804;28;20270;-49
2022/09/08 11:12:17;;;;;;;2.03;0.90;;;;;23.00;98438.00;;;;16452611;28;20597;-48
2022/09/08 11:20:29;;;;;;;1.83;1.10;;;;;23.60;98451.00;;;;16450243;28;20224;-49
2022/09/08 11:28:49;;;;;;;2.20;1.07;;;;;23.80;98458.00;;;;16460884;28;20647;-50
2022/09/08 11:37:20;;;;;;;3.30;1.20;;;;;23.60;98458.00;;;;16450110;28;20204;-50
2022/09/08 11:45:29;;;;;;;1.20;0.80;;;;;23.00;98457.00;;;;16451315;28;20224;-49
2022/09/08 11:53:52;;;;;;;1.80;1.03;;;;;23.40;98469.00;;;;16453182;28;20331;-49
2022/09/08 12:02:06;;;;;;;3.40;1.43;;;;;24.40;98460.00;;;;16447645;28;20213;-48
2022/09/08 12:10:26;;;;;;;2.57;1.40;;;;;26.10;98451.00;;;;16448383;28;20369;-50
2022/09/08 12:18:41;;;;;;;3.00;1.53;;;;;23.60;98463.00;;;;16454333;28;21140;-50
2022/09/08 12:26:52;;;;;;;2.90;1.07;;;;;24.40;98460.00;;;;16452493;28;20232;-49
2022/09/08 12:35:20;;;;;;;1.70;1.37;;;;;25.20;98467.00;;;;16455121;28;20224;-50
2022/09/08 12:43:25;;;;;;;1.43;1.07;;;;;24.50;98463.00;;;;16456331;28;20247;-50
2022/09/08 12:51:30;;;;;;;1.50;1.33;;;;;24.30;98461.00;;;;16462548;28;20229;-49
2022/09/08 12:59:44;;;;;;;1.30;0.70;;;;;26.70;98452.00;;;;16463093;28;20628;-49
2022/09/08 13:07:54;;;;;;;1.70;0.80;;;;;24.70;98449.00;;;;16462757;28;20221;-49
2022/09/08 13:16:05;;;;;;;0.80;0.70;;;;;25.40;98442.00;;;;16457453;28;20247;-49
2022/09/08 13:24:12;;;;;;;1.47;1.07;;;;;26.00;98444.00;;;;16453798;28;20268;-48
2022/09/08 13:32:36;;;;;;;1.93;1.00;;;;;25.50;98442.00;;;;16457166;28;20249;-49
2022/09/08 13:40:47;;;;;;;1.60;1.00;;;;;25.50;98437.00;;;;16453985;28;20371;-49
2022/09/08 13:49:12;;;;;;;4.83;1.40;;;;;26.50;98423.00;;;;16458767;28;20246;-49
2022/09/08 13:57:49;;;;;;;3.27;0.90;;;;;25.80;98413.00;;;;16459146;28;20215;-49
2022/09/08 14:05:53;;;;;;;2.10;1.10;;;;;26.50;98404.00;;;;16404954;28;20228;-49
2022/09/08 14:14:27;;;;;;;2.30;0.77;;;;;27.10;98403.00;;;;16449687;28;20233;-49
2022/09/08 14:22:41;;;;;;;1.37;0.83;;;;;28.00;98419.00;;;;16447156;28;20878;-49
2022/09/08 14:30:54;;;;;;;2.73;1.13;;;;;28.60;98414.00;;;;16454386;28;20299;-48
2022/09/08 14:39:16;;;;;;;1.47;0.70;;;;;25.70;98430.00;;;;16436121;28;20283;-48
2022/09/08 14:47:30;;;;;;;2.03;0.93;;;;;25.70;98419.00;;;;16458578;28;20280;-48
2022/09/08 14:55:35;;;;;;;1.77;0.87;;;;;24.90;98412.00;;;;16442615;28;20598;-48
2022/09/08 15:03:41;;;;;;;2.80;1.10;;;;;25.10;98411.00;;;;16452386;28;20637;-48
2022/09/08 15:11:45;;;;;;;2.83;1.10;;;;;25.20;98392.00;;;;16452406;28;20313;-49
2022/09/08 15:19:54;;;;;;;1.60;0.70;;;;;27.20;98393.00;;;;16444701;28;20247;-48
2022/09/08 15:27:58;;;;;;;3.70;1.53;;;;;25.40;98417.00;;;;16446626;28;20722;-48
2022/09/08 15:36:05;;;;;;;1.77;0.90;;;;;25.10;98404.00;;;;16445655;28;20590;-48
2022/09/08 15:44:37;;;;;;;2.33;1.07;;;;;26.00;98398.00;;;;16443699;28;20223;-48
2022/09/08 15:52:57;;;;;;;3.80;1.13;;;;;27.10;98387.00;;;;16441135;28;20231;-47
2022/09/08 16:01:06;;;;;;;1.53;1.00;;;;;27.60;98390.00;;;;16441062;28;20217;-49
2022/09/08 16:09:12;;;;;;;2.40;1.03;;;;;28.60;98388.00;;;;16446991;28;20216;-49
2022/09/08 16:17:17;;;;;;;3.13;1.20;;;;;25.90;98405.00;;;;16452545;28;20207;-48
2022/09/08 16:25:32;;;;;;;2.83;1.20;;;;;26.90;98407.00;;;;16453013;28;20240;-48
2022/09/08 16:33:36;;;;;;;1.97;1.13;;;;;26.00;98414.00;;;;16449525;23;20240;-48
2022/09/08 16:41:45;;;;;;;2.63;1.33;;;;;26.30;98424.00;;;;16391662;28;20220;-48
2022/09/08 16:49:53;;;;;;;5.47;1.50;;;;;25.30;98425.00;;;;16448543;28;20303;-48
2022/09/08 16:58:05;;;;;;;2.93;1.00;;;;;24.90;98431.00;;;;16389110;28;20228;-49
2022/09/08 17:06:19;;;;;;;1.80;1.47;;;;;25.50;98425.00;;;;16393033;28;20345;-49
2022/09/08 17:14:22;;;;;;;5.23;1.43;;;;;25.80;98427.00;;;;16399583;28;20652;-48
2022/09/08 17:23:00;;;;;;;2.43;1.00;;;;;25.00;98426.00;;;;16399283;28;20311;-48
2022/09/08 17:31:24;;;;;;;1.77;0.80;;;;;24.50;98431.00;;;;16394156;28;20757;-48
2022/09/08 17:39:36;;;;;;;2.50;1.50;;;;;24.40;98423.00;;;;16405695;28;20252;-48
2022/09/08 17:48:06;;;;;;;2.03;1.47;;;;;24.10;98426.00;;;;16397231;28;20236;-48
2022/09/08 17:56:34;;;;;;;3.50;1.47;;;;;23.40;98433.00;;;;16396806;28;20262;-48
2022/09/08 18:04:38;;;;;;;2.70;1.40;;;;;22.50;98437.00;;;;16395090;28;20316;-48
2022/09/08 18:12:45;;;;;;;9.30;1.80;;;;;22.10;98455.00;;;;16407773;28;20300;-48
2022/09/08 18:20:55;;;;;;;1.90;1.20;;;;;21.50;98468.00;;;;16393724;28;20236;-47
2022/09/08 18:29:10;;;;;;;5.23;1.53;;;;;21.10;98478.00;;;;16394991;28;20217;-47
2022/09/08 18:37:16;;;;;;;6.17;1.70;;;;;21.00;98477.00;;;;16391262;28;20248;-48
2022/09/08 18:45:58;;;;;;;4.00;1.53;;;;;20.10;98492.00;;;;16389753;28;20260;-48
2022/09/08 18:54:42;;;;;;;4.87;1.67;;;;;19.80;98498.00;;;;16386351;28;20218;-48
2022/09/08 19:02:47;;;;;;;2.83;1.30;;;;;20.00;98503.00;;;;16379194;28;20224;-47
2022/09/08 19:10:51;;;;;;;2.87;1.53;;;;;19.90;98496.00;;;;16386636;28;20232;-47
2022/09/08 19:18:56;;;;;;;4.00;1.70;;;;;19.20;98504.00;;;;16390141;28;20196;-48
2022/09/08 19:27:02;;;;;;;4.47;1.73;;;;;19.40;98506.00;;;;16387490;28;20227;-48
2022/09/08 19:35:12;;;;;;;3.70;1.77;;;;;18.80;98506.00;;;;16379549;28;20452;-48
2022/09/08 19:43:32;;;;;;;5.90;1.80;;;;;18.90;98517.00;;;;16382628;28;20221;-47
2022/09/08 19:51:47;;;;;;;6.17;2.50;;;;;18.90;98520.00;;;;16380951;28;20257;-47
2022/09/08 19:59:58;;;;;;;3.80;2.40;;;;;19.30;98531.00;;;;16388752;28;20197;-48
2022/09/08 20:08:02;;;;;;;2.90;2.20;;;;;18.00;98534.00;;;;16391363;28;20360;-47
2022/09/08 20:16:15;;;;;;;8.63;2.53;;;;;18.00;98536.00;;;;16386857;28;20227;-47
2022/09/08 20:24:41;;;;;;;2.60;1.70;;;;;19.30;98536.00;;;;16391046;28;20710;-46
2022/09/08 20:32:59;;;;;;;6.87;1.83;;;;;18.60;98537.00;;;;16383034;28;20279;-46
2022/09/08 20:41:18;;;;;;;2.13;1.93;;;;;19.70;98536.00;;;;16386773;28;20823;-45
2022/09/08 20:49:23;;;;;;;6.03;2.50;;;;;19.20;98528.00;;;;16396687;28;20233;-46
2022/09/08 20:57:40;;;;;;;4.67;2.33;;;;;18.10;98540.00;;;;16403691;28;20216;-47
2022/09/08 21:05:43;;;;;;;2.83;1.97;;;;;17.80;98542.00;;;;16393860;28;20695;-48
2022/09/08 21:13:51;;;;;;;2.97;2.07;;;;;17.20;98562.00;;;;16396159;28;20233;-48
2022/09/08 21:21:57;;;;;;;2.70;2.00;;;;;17.70;98549.00;;;;16396760;28;20288;-48
2022/09/08 21:30:11;;;;;;;4.53;2.07;;;;;17.60;98568.00;;;;16396002;28;20222;-48
2022/09/08 21:38:26;;;;;;;5.73;2.23;;;;;17.50;98553.00;;;;16394704;28;20281;-47
2022/09/08 21:46:36;;;;;;;3.60;2.10;;;;;16.80;98546.00;;;;16398202;28;20233;-48
2022/09/08 21:54:48;;;;;;;6.53;3.37;;;;;18.00;98544.00;;;;16399949;28;20591;-48
2022/09/08 22:03:06;;;;;;;3.90;1.87;;;;;17.50;98548.00;;;;16392418;28;20226;-48
2022/09/08 22:11:19;;;;;;;2.80;2.40;;;;;18.50;98541.00;;;;16388796;28;20237;-48
2022/09/08 22:19:43;;;;;;;7.40;2.50;;;;;18.30;98540.00;;;;16398022;28;20200;-48
2022/09/08 22:27:50;;;;;;;2.90;1.90;;;;;18.00;98542.00;;;;16391355;28;20229;-48
2022/09/08 22:35:59;;;;;;;6.17;2.70;;;;;18.60;98530.00;;;;16403842;28;20272;-48
2022/09/08 22:44:18;;;;;;;3.03;1.90;;;;;17.80;98530.00;;;;16393943;28;20225;-48
2022/09/08 22:52:39;;;;;;;2.60;2.37;;;;;17.70;98529.00;;;;16392444;28;20229;-49
2022/09/08 23:00:52;;;;;;;3.17;2.07;;;;;18.00;98538.00;;;;16396377;28;20232;-49
2022/09/08 23:09:02;;;;;;;2.27;1.93;;;;;18.40;98538.00;;;;16389453;28;20225;-48
2022/09/08 23:17:14;;;;;;;3.00;2.40;;;;;17.30;98543.00;;;;16390878;28;20225;-48
2022/09/08 23:25:26;;;;;;;4.00;1.70;;;;;17.80;98544.00;;;;16439366;23;20236;-50
2022/09/08 23:33:29;;;;;;;4.97;2.30;;;;;16.80;98555.00;;;;16435395;28;20233;-51
2022/09/08 23:41:34;;;;;;;2.33;1.73;;;;;16.20;98553.00;;;;16401643;28;20201;-50
2022/09/08 23:49:37;;;;;;;2.43;2.03;;;;;16.40;98550.00;;;;16386553;28;20719;-50
2022/09/08 23:57:41;;;;;;;2.77;2.00;;;;;16.60;98555.00;;;;16391927;28;20225;-51
